Time;durP1;ratioP1;P1;durP2;ratioP2;P2;SDS_P1;SDS_P2;PMS_P1;PMS_P2;Temp;Humidity;BMP_temperature;BMP_pressure;BME280_temperature;BME280_humidity;BME280_pressure;Samples;Min_cycle;Max_cycle;Signal;HPM_P1;HPM_P2
2022/04/19 00:00:15;;;;;;;;;12.33;10.67;;;;;30.50;22.12;101030.09;4979050;28;48072;-76
2022/04/19 00:02:40;;;;;;;;;9.67;9.00;;;;;30.45;22.18;101031.25;4996842;28;45424;-77
2022/04/19 00:05:06;;;;;;;;;11.00;10.67;;;;;30.32;22.29;101005.56;4997030;28;45370;-76
2022/04/19 00:07:31;;;;;;;;;9.00;9.00;;;;;30.45;22.09;101024.91;4996797;28;45459;-76
2022/04/19 00:09:57;;;;;;;;;9.67;8.33;;;;;30.39;22.18;101028.88;4978938;28;47531;-76
2022/04/19 00:12:22;;;;;;;;;10.67;9.00;;;;;30.42;21.98;101027.78;4996728;28;45387;-76
2022/04/19 00:14:48;;;;;;;;;12.33;11.33;;;;;30.20;22.19;101018.13;4996694;28;45362;-76
2022/04/19 00:17:14;;;;;;;;;10.33;9.67;;;;;30.20;22.20;101012.66;4996615;28;45571;-76
2022/04/19 00:19:39;;;;;;;;;10.33;8.33;;;;;30.26;22.16;101019.63;4978989;28;47003;-76
2022/04/19 00:22:05;;;;;;;;;10.67;9.33;;;;;30.41;22.18;101021.44;4996283;28;45369;-76
2022/04/19 00:24:30;;;;;;;;;11.00;10.00;;;;;30.42;21.98;100992.19;4979045;28;45219;-76
2022/04/19 00:26:55;;;;;;;;;10.67;9.00;;;;;30.56;21.65;101008.72;4996521;28;45596;-76
2022/04/19 00:29:21;;;;;;;;;9.00;9.00;;;;;30.38;21.52;100979.66;4996296;28;45281;-76
2022/04/19 00:31:46;;;;;;;;;9.33;8.00;;;;;30.36;21.41;100989.84;4996601;28;45270;-76
2022/04/19 00:34:11;;;;;;;;;8.00;8.00;;;;;30.40;21.46;101008.72;4996282;28;45247;-76
2022/04/19 00:36:37;;;;;;;;;12.00;10.00;;;;;30.42;21.53;101004.03;4996312;28;45454;-76
2022/04/19 00:39:03;;;;;;;;;9.00;8.33;;;;;30.39;21.67;100987.81;4996157;28;46066;-76
2022/04/19 00:41:29;;;;;;;;;10.00;8.00;;;;;30.39;21.91;101001.50;4996335;28;45277;-76
2022/04/19 00:43:54;;;;;;;;;9.00;7.67;;;;;30.31;21.83;100987.41;4996337;28;45413;-76
2022/04/19 00:46:20;;;;;;;;;9.00;9.00;;;;;30.27;21.33;100981.22;4996461;28;45536;-76
2022/04/19 00:48:45;;;;;;;;;8.67;8.67;;;;;30.33;22.02;101004.59;4995998;28;45502;-77
2022/04/19 00:51:12;;;;;;;;;9.00;7.67;;;;;30.36;21.35;101009.00;4995728;28;45528;-76
2022/04/19 00:53:37;;;;;;;;;9.00;6.67;;;;;30.27;21.44;101016.78;4978639;28;45422;-76
2022/04/19 00:56:03;;;;;;;;;7.67;6.67;;;;;30.11;21.71;101003.16;4978429;28;45392;-76
2022/04/19 00:58:29;;;;;;;;;6.67;6.00;;;;;30.19;21.52;101001.81;4995774;28;45422;-76
2022/04/19 01:00:55;;;;;;;;;7.00;7.00;;;;;30.09;21.52;100996.88;4996097;28;45390;-76
2022/04/19 01:03:21;;;;;;;;;5.33;5.33;;;;;30.07;21.58;100998.81;4995922;28;45458;-76
2022/04/19 01:05:47;;;;;;;;;7.00;6.00;;;;;29.92;21.11;100999.72;4995788;28;45313;-76
2022/04/19 01:08:14;;;;;;;;;5.00;5.00;;;;;29.75;21.42;100995.22;4977460;28;47734;-76
2022/04/19 01:10:42;;;;;;;;;5.67;5.67;;;;;29.76;21.36;100989.66;4995990;28;45398;-76
2022/04/19 01:13:17;;;;;;;;;6.00;5.00;;;;;29.66;21.33;100993.00;4995944;28;45476;-75
2022/04/19 01:15:48;;;;;;;;;7.33;3.33;;;;;29.71;21.33;101002.69;4995904;28;45415;-75
2022/04/19 01:18:17;;;;;;;;;5.67;4.67;;;;;29.64;21.02;100957.53;4977764;28;47333;-76
2022/04/19 01:20:43;;;;;;;;;7.67;6.00;;;;;29.76;21.20;100983.28;4993890;28;45278;-75
2022/04/19 01:23:08;;;;;;;;;7.33;5.67;;;;;29.74;21.31;100990.72;4995720;28;45258;-75
2022/04/19 01:25:34;;;;;;;;;5.67;5.67;;;;;29.72;21.00;100993.53;4997555;28;45239;-75
2022/04/19 01:27:59;;;;;;;;;7.00;7.00;;;;;29.71;21.30;100997.22;4995489;28;45375;-76
2022/04/19 01:30:25;;;;;;;;;6.00;5.00;;;;;29.52;21.08;100950.94;4995421;28;45206;-75
2022/04/19 01:32:51;;;;;;;;;9.00;6.00;;;;;29.73;20.98;100995.31;4986043;28;45390;-75
2022/04/19 01:35:19;;;;;;;;;5.33;5.33;;;;;29.74;20.67;101004.38;4975449;28;45230;-75
2022/04/19 01:37:47;;;;;;;;;6.67;6.67;;;;;29.69;20.52;100976.41;4975978;28;45594;-75
2022/04/19 01:40:19;;;;;;;;;5.67;5.67;;;;;29.66;20.77;100996.63;4974340;28;45814;-75
2022/04/19 01:42:58;;;;;;;;;6.33;6.33;;;;;29.64;20.79;100995.81;4976131;28;45413;-75
2022/04/19 01:45:26;;;;;;;;;7.00;6.00;;;;;29.50;20.92;100995.75;4975679;28;45315;-75
2022/04/19 01:47:53;;;;;;;;;4.00;4.00;;;;;29.18;21.05;100976.53;4975562;28;48049;-75
2022/04/19 01:50:19;;;;;;;;;5.00;4.00;;;;;29.32;21.03;100993.06;4975398;28;45334;-75
2022/04/19 01:52:47;;;;;;;;;7.67;6.00;;;;;29.09;21.18;100970.59;4975862;28;45381;-75
2022/04/19 01:55:14;;;;;;;;;6.00;6.00;;;;;29.29;20.68;100976.84;4975759;28;45589;-77
2022/04/19 01:58:00;;;;;;;;;6.00;6.00;;;;;29.27;20.64;101000.66;4975674;28;45398;-77
2022/04/19 02:00:26;;;;;;;;;5.33;5.33;;;;;29.12;20.61;100972.28;4975192;28;45474;-75
2022/04/19 02:02:55;;;;;;;;;6.00;5.00;;;;;29.26;20.69;100988.81;4974041;28;45400;-77
2022/04/19 02:05:21;;;;;;;;;6.67;5.00;;;;;29.14;20.80;100974.94;4975341;28;45346;-75
2022/04/19 02:07:46;;;;;;;;;6.00;5.00;;;;;29.28;20.80;100983.25;4975538;28;46387;-75
2022/04/19 02:10:14;;;;;;;;;5.67;5.00;;;;;29.32;20.71;100978.53;4975492;28;45501;-75
2022/04/19 02:12:40;;;;;;;;;6.67;5.33;;;;;29.26;20.41;100983.34;4975762;28;45457;-75
2022/04/19 02:15:07;;;;;;;;;7.33;5.00;;;;;29.18;20.78;100971.94;4975340;28;45438;-76
2022/04/19 02:17:33;;;;;;;;;5.67;4.00;;;;;29.31;20.73;100988.59;4975110;28;46632;-75
2022/04/19 02:20:04;;;;;;;;;6.00;6.00;;;;;29.22;20.71;100980.84;4977370;28;45455;-75
2022/04/19 02:22:31;;;;;;;;;5.00;4.00;;;;;29.09;20.70;100973.34;4978794;28;45331;-75
2022/04/19 02:24:58;;;;;;;;;3.67;2.67;;;;;29.07;20.87;100968.91;4979061;28;45264;-76
2022/04/19 02:27:24;;;;;;;;;9.00;3.33;;;;;29.13;20.30;100964.97;5012721;28;45749;-75
2022/04/19 02:29:50;;;;;;;;;4.00;4.00;;;;;29.14;20.48;100962.19;5018262;28;45388;-75
2022/04/19 02:32:16;;;;;;;;;7.67;3.00;;;;;29.28;20.37;100975.06;5018054;28;45482;-75
2022/04/19 02:34:41;;;;;;;;;5.00;4.00;;;;;29.09;20.50;100943.28;5018397;28;45579;-75
2022/04/19 02:37:07;;;;;;;;;5.00;5.00;;;;;29.24;20.18;100985.31;5018064;28;46679;-75
2022/04/19 02:39:32;;;;;;;;;7.33;5.00;;;;;29.20;20.23;100985.53;5016808;28;45729;-75
2022/04/19 02:41:58;;;;;;;;;4.00;4.00;;;;;29.17;20.34;100974.75;5018255;28;45438;-75
2022/04/19 02:44:23;;;;;;;;;3.67;3.67;;;;;29.16;20.46;100964.81;5017914;28;45704;-75
2022/04/19 02:46:49;;;;;;;;;4.33;3.00;;;;;29.10;20.07;100952.38;5017760;28;46607;-75
2022/04/19 02:49:15;;;;;;;;;5.00;5.00;;;;;29.05;20.37;100955.34;5017911;28;45451;-75
2022/04/19 02:51:40;;;;;;;;;4.00;4.00;;;;;28.93;20.13;100958.78;5017614;28;45463;-75
2022/04/19 02:54:05;;;;;;;;;4.00;4.00;;;;;29.00;20.49;100972.97;5017613;28;46195;-75
2022/04/19 02:56:31;;;;;;;;;3.67;3.00;;;;;29.02;19.96;100963.72;5017429;28;45437;-74
2022/04/19 02:58:56;;;;;;;;;3.00;3.00;;;;;28.94;20.09;100957.78;5017879;28;45697;-75
2022/04/19 03:01:22;;;;;;;;;5.33;3.00;;;;;28.99;20.10;100958.44;5017165;28;45383;-76
2022/04/19 03:03:47;;;;;;;;;5.00;4.00;;;;;28.91;20.06;100952.50;5017880;28;45299;-75
2022/04/19 03:06:13;;;;;;;;;3.00;3.00;;;;;28.85;19.93;100952.84;5017275;28;45482;-75
2022/04/19 03:08:38;;;;;;;;;3.00;3.00;;;;;28.76;20.36;100937.81;5017305;28;45379;-75
2022/04/19 03:11:04;;;;;;;;;5.33;3.00;;;;;28.91;19.92;100966.16;5017852;28;45311;-75
2022/04/19 03:13:31;;;;;;;;;4.00;4.00;;;;;28.89;20.11;100963.50;5017346;28;45455;-75
2022/04/19 03:15:56;;;;;;;;;3.00;3.00;;;;;28.82;19.96;100942.06;5016590;28;45492;-75
2022/04/19 03:18:22;;;;;;;;;3.67;3.00;;;;;28.94;19.85;100970.56;5016793;28;45364;-75
2022/04/19 03:20:47;;;;;;;;;6.67;3.00;;;;;28.86;19.77;100940.94;5017478;28;45574;-76
2022/04/19 03:28:46;;;;;;;;;4.00;4.00;;;;;28.97;19.62;100949.41;4997097;28;45210;-75
2022/04/19 03:31:13;;;;;;;;;4.33;3.00;;;;;28.99;19.90;100933.84;4996829;28;45551;-75
2022/04/19 03:33:39;;;;;;;;;5.00;5.00;;;;;29.07;19.86;100952.53;4979659;28;45542;-75
2022/04/19 03:36:05;;;;;;;;;3.00;3.00;;;;;29.05;19.85;100943.53;4997401;28;46183;-75
2022/04/19 03:38:31;;;;;;;;;5.00;3.00;;;;;29.13;19.89;100952.19;4979354;28;45630;-75
2022/04/19 03:40:56;;;;;;;;;4.00;4.00;;;;;29.27;20.03;100956.94;4997654;28;45513;-75
2022/04/19 03:43:23;;;;;;;;;3.33;3.00;;;;;29.18;20.04;100949.19;4997176;28;45543;-75
2022/04/19 03:45:48;;;;;;;;;3.67;3.67;;;;;28.94;20.07;100946.88;4997008;28;45477;-75
2022/04/19 03:48:13;;;;;;;;;8.33;4.00;;;;;28.85;20.23;100928.28;4997068;28;45318;-75
2022/04/19 03:50:40;;;;;;;;;2.67;2.67;;;;;29.04;19.96;100966.34;4997045;28;45297;-75
2022/04/19 03:53:05;;;;;;;;;5.00;5.00;;;;;29.03;20.30;100946.38;4979610;28;45548;-75
2022/04/19 03:55:30;;;;;;;;;5.00;4.00;;;;;28.83;20.35;100911.97;4996552;28;46703;-75
2022/04/19 03:57:56;;;;;;;;;3.00;3.00;;;;;29.02;19.88;100952.78;4979175;28;45755;-75
2022/04/19 04:00:21;;;;;;;;;5.00;3.33;;;;;29.04;20.17;100958.16;4996865;28;45389;-75
2022/04/19 04:02:47;;;;;;;;;6.00;3.33;;;;;29.11;20.27;100955.97;4996970;28;45399;-75
2022/04/19 04:05:12;;;;;;;;;4.00;3.00;;;;;29.00;20.03;100924.69;4996619;28;45397;-75
2022/04/19 04:07:38;;;;;;;;;4.00;4.00;;;;;29.00;20.08;100926.53;4979070;28;46118;-75
2022/04/19 04:10:04;;;;;;;;;2.67;2.67;;;;;29.04;20.14;100945.41;4979539;28;45487;-75
2022/04/19 04:12:30;;;;;;;;;5.00;4.00;;;;;28.89;20.46;100943.53;4996837;28;45326;-75
2022/04/19 04:14:55;;;;;;;;;5.33;3.67;;;;;28.86;20.24;100921.81;4996377;28;46605;-75
2022/04/19 04:17:21;;;;;;;;;3.00;3.00;;;;;29.01;20.70;100940.09;4996499;28;45436;-75
2022/04/19 04:19:47;;;;;;;;;3.00;2.00;;;;;28.93;20.26;100934.19;4979098;28;45401;-75
2022/04/19 04:22:12;;;;;;;;;3.33;3.00;;;;;28.94;20.33;100929.59;4996649;28;45323;-75
2022/04/19 04:24:37;;;;;;;;;4.00;4.00;;;;;28.88;20.22;100919.91;4996278;28;46163;-75
2022/04/19 04:27:03;;;;;;;;;5.00;3.33;;;;;29.00;20.42;100935.63;5004449;28;45373;-75
2022/04/19 04:29:28;;;;;;;;;4.00;3.00;;;;;28.96;20.36;100931.28;4994745;28;45361;-75
2022/04/19 04:31:54;;;;;;;;;3.00;3.00;;;;;28.95;19.98;100937.72;4996815;28;45321;-75
2022/04/19 04:34:19;;;;;;;;;6.00;4.00;;;;;28.96;20.37;100933.13;4996283;28;46327;-75
2022/04/19 04:36:45;;;;;;;;;3.00;3.00;;;;;28.83;20.15;100911.97;4996501;28;45322;-75
2022/04/19 04:39:10;;;;;;;;;4.67;3.67;;;;;28.95;20.38;100918.59;4996342;28;45338;-76
2022/04/19 04:41:36;;;;;;;;;4.00;2.00;;;;;28.96;20.48;100944.94;5023048;28;45426;-75
2022/04/19 04:44:01;;;;;;;;;6.67;3.67;;;;;28.87;20.32;100943.59;5033906;28;48686;-76
2022/04/19 04:51:54;;;;;;;;;4.67;3.00;;;;;29.04;20.39;100941.78;5015898;28;45451;-76
2022/04/19 04:54:20;;;;;;;;;5.00;3.67;;;;;29.00;20.08;100945.66;5015563;28;45534;-75
2022/04/19 04:56:46;;;;;;;;;3.67;3.67;;;;;28.96;20.44;100942.22;5015415;28;45330;-76
2022/04/19 04:59:11;;;;;;;;;4.00;4.00;;;;;29.02;20.30;100932.81;5015520;28;45251;-74
2022/04/19 05:01:36;;;;;;;;;6.33;4.00;;;;;29.00;20.40;100935.63;5015478;28;45532;-76
2022/04/19 05:04:02;;;;;;;;;6.33;5.00;;;;;28.97;20.32;100935.75;5015197;28;46322;-76
2022/04/19 05:06:27;;;;;;;;;3.67;3.67;;;;;29.05;20.16;100949.00;5015656;28;45321;-77
2022/04/19 05:08:52;;;;;;;;;4.00;4.00;;;;;28.91;20.15;100945.19;5015687;28;45498;-75
2022/04/19 05:11:18;;;;;;;;;4.00;4.00;;;;;28.88;20.44;100952.69;5013954;28;45828;-77
2022/04/19 05:13:43;;;;;;;;;7.00;5.00;;;;;29.04;20.16;100959.06;5015331;28;45878;-75
2022/04/19 05:16:08;;;;;;;;;4.67;4.33;;;;;29.14;20.00;100964.91;5023844;28;45832;-75
2022/04/19 05:18:34;;;;;;;;;4.00;4.00;;;;;29.04;20.05;100966.34;5021167;28;45455;-77
2022/04/19 05:20:59;;;;;;;;;3.67;3.00;;;;;29.00;19.97;100962.94;5015852;28;45446;-76
2022/04/19 05:23:25;;;;;;;;;2.00;2.00;;;;;28.92;19.97;100966.06;5031273;28;46958;-76
2022/04/19 05:25:50;;;;;;;;;4.67;3.67;;;;;28.97;20.38;100956.75;5029534;28;45757;-75
2022/04/19 05:28:15;;;;;;;;;5.00;4.00;;;;;28.87;20.69;100961.81;5003434;28;45488;-75
2022/04/19 05:30:41;;;;;;;;;3.33;1.33;;;;;28.92;20.43;100965.19;4995553;28;45761;-76
2022/04/19 05:33:06;;;;;;;;;3.00;3.00;;;;;28.85;20.50;100967.38;4995286;28;46175;-76
2022/04/19 05:35:36;;;;;;;;;7.00;4.00;;;;;28.92;20.43;100966.06;4995439;28;45412;-76
2022/04/19 05:38:01;;;;;;;;;4.33;4.33;;;;;28.87;20.60;100959.09;4995304;28;45245;-78
2022/04/19 05:40:27;;;;;;;;;4.00;4.00;;;;;28.79;20.63;100951.34;4994851;28;45322;-77
2022/04/19 05:42:52;;;;;;;;;3.00;3.00;;;;;28.81;20.41;100963.03;4994818;28;45905;-76
2022/04/19 05:45:18;;;;;;;;;5.33;3.33;;;;;28.76;20.62;100956.94;4977131;28;45353;-77
2022/04/19 05:47:43;;;;;;;;;3.33;3.33;;;;;28.89;20.89;100952.59;4995378;28;45503;-80
2022/04/19 05:50:10;;;;;;;;;4.00;4.00;;;;;29.08;20.73;100973.41;5000393;28;45409;-81
2022/04/19 05:52:35;;;;;;;;;4.67;2.33;;;;;28.82;20.52;100958.44;5002263;28;45417;-78
2022/04/19 05:55:01;;;;;;;;;4.00;4.00;;;;;28.84;20.98;100970.19;4979988;28;45571;-78
2022/04/19 05:57:26;;;;;;;;;7.00;4.00;;;;;28.82;20.85;100969.38;4998500;28;45736;-76
2022/04/19 05:59:51;;;;;;;;;6.33;5.00;;;;;28.57;21.07;100940.66;4998118;28;45370;-76
2022/04/19 06:05:00;;;;;;;;;5.00;4.00;;;;;28.87;20.80;100951.78;4990179;28;45448;-75
2022/04/19 06:07:28;;;;;;;;;4.33;4.00;;;;;28.89;21.00;100955.31;4979101;28;45554;-76
2022/04/19 06:09:53;;;;;;;;;4.33;4.33;;;;;28.80;21.15;100960.41;4978358;28;45382;-75
2022/04/19 06:12:19;;;;;;;;;3.00;3.00;;;;;28.80;21.17;100974.94;4978811;28;45381;-75
2022/04/19 06:14:45;;;;;;;;;3.33;3.00;;;;;28.80;21.13;100972.19;4978520;28;45347;-76
2022/04/19 06:17:14;;;;;;;;;4.33;4.00;;;;;28.83;21.04;100961.13;4978779;28;45287;-75
2022/04/19 06:19:40;;;;;;;;;5.67;4.00;;;;;28.82;21.61;100972.09;4978728;28;45362;-75
2022/04/19 06:22:06;;;;;;;;;4.33;4.33;;;;;28.72;21.29;100952.59;4960756;28;47098;-75
2022/04/19 06:24:31;;;;;;;;;6.67;3.00;;;;;28.74;21.14;100967.94;4978123;28;45490;-75
2022/04/19 06:26:56;;;;;;;;;5.00;4.00;;;;;28.75;21.73;100956.06;5001560;28;45417;-75
2022/04/19 06:29:22;;;;;;;;;4.00;3.00;;;;;28.78;21.38;100955.03;5014958;28;45451;-75
2022/04/19 06:31:48;;;;;;;;;4.00;4.00;;;;;28.72;21.49;100966.25;5017762;28;46366;-76
2022/04/19 06:34:13;;;;;;;;;5.33;4.00;;;;;28.62;21.86;100963.19;5018121;28;45411;-75
2022/04/19 06:36:39;;;;;;;;;6.00;5.00;;;;;28.71;21.55;100957.19;5017776;28;45491;-76
2022/04/19 06:39:04;;;;;;;;;5.33;5.33;;;;;28.91;21.90;100985.28;5017549;28;45558;-75
2022/04/19 06:41:30;;;;;;;;;6.00;5.00;;;;;28.69;22.00;100970.06;5017971;28;46330;-75
2022/04/19 06:43:58;;;;;;;;;4.00;3.00;;;;;28.64;21.97;100954.91;5017505;28;45808;-76
2022/04/19 06:46:26;;;;;;;;;7.67;5.00;;;;;28.75;21.98;100977.91;5018025;28;45539;-75
2022/04/19 06:48:55;;;;;;;;;6.00;6.00;;;;;28.67;21.73;100960.19;5017651;28;45339;-75
2022/04/19 06:51:21;;;;;;;;;5.67;4.00;;;;;28.58;22.14;100967.00;5017529;28;45516;-75
2022/04/19 06:53:46;;;;;;;;;7.00;5.67;;;;;28.69;21.88;100952.78;5017318;28;45279;-75
2022/04/19 06:56:12;;;;;;;;;6.00;5.00;;;;;28.78;21.76;100962.34;5017917;28;45272;-75
2022/04/19 06:58:39;;;;;;;;;7.33;5.00;;;;;28.73;21.66;100938.00;5017682;28;45491;-76
2022/04/19 07:01:05;;;;;;;;;7.00;4.00;;;;;28.94;21.81;100967.84;5017379;28;45799;-76
2022/04/19 07:03:30;;;;;;;;;6.33;4.33;;;;;28.82;21.72;100962.09;5017615;28;45427;-76
2022/04/19 07:05:56;;;;;;;;;3.00;3.00;;;;;28.90;21.96;100956.19;5016701;28;45978;-75
2022/04/19 07:08:21;;;;;;;;;6.33;6.33;;;;;29.07;22.10;100975.28;5017390;28;45352;-76
2022/04/19 07:10:47;;;;;;;;;4.33;4.33;;;;;29.15;21.78;100968.50;5017543;28;46082;-76
2022/04/19 07:13:13;;;;;;;;;5.67;5.00;;;;;28.96;21.90;100947.69;5017445;28;45462;-76
2022/04/19 07:15:39;;;;;;;;;5.33;5.33;;;;;29.01;21.95;100956.47;5017578;28;45391;-76
2022/04/19 07:18:04;;;;;;;;;5.33;4.00;;;;;29.15;21.58;100963.03;5017357;28;45676;-76
2022/04/19 07:28:41;;;;;;;;;8.67;5.00;;;;;29.16;21.56;100975.75;4997345;28;45422;-78
2022/04/19 07:31:07;;;;;;;;;6.33;5.00;;;;;28.99;21.83;100958.44;4996823;28;46693;-76
2022/04/19 07:33:37;;;;;;;;;6.00;6.00;;;;;29.16;21.78;100973.00;4979497;28;45432;-75
2022/04/19 07:36:02;;;;;;;;;2.00;2.00;;;;;29.09;21.51;100965.13;4996663;28;46440;-77
2022/04/19 07:38:28;;;;;;;;;5.33;5.33;;;;;29.17;21.40;100970.19;4979482;28;45330;-77
2022/04/19 07:40:53;;;;;;;;;6.00;5.67;;;;;29.24;21.67;100959.81;4979322;28;48399;-76
2022/04/19 07:43:19;;;;;;;;;8.50;6.00;;;;;29.16;21.68;100926.56;4979503;28;45456;-77
2022/04/19 07:45:44;;;;;;;;;7.67;6.00;;;;;29.37;21.51;100954.56;4997203;28;45455;-76
2022/04/19 07:48:09;;;;;;;;;6.00;6.00;;;;;29.20;21.79;100937.22;4990747;28;45319;-77
2022/04/19 07:50:35;;;;;;;;;7.00;7.00;;;;;29.26;22.22;100955.16;4999512;28;46026;-72
2022/04/19 07:53:01;;;;;;;;;7.00;6.67;;;;;29.24;21.73;100960.72;4994682;28;45526;-71
2022/04/19 07:55:27;;;;;;;;;8.33;5.67;;;;;29.22;21.79;100959.00;4995304;28;45568;-71
2022/04/19 07:57:53;;;;;;;;;10.00;5.33;;;;;29.34;21.87;100955.59;4994812;28;45634;-72
2022/04/19 08:00:19;;;;;;;;;9.00;7.00;;;;;29.45;21.68;100956.84;4995526;28;46258;-72
2022/04/19 08:02:46;;;;;;;;;8.00;5.67;;;;;29.54;21.95;100959.94;4996477;28;45403;-78
2022/04/19 08:05:12;;;;;;;;;9.00;7.00;;;;;29.48;21.46;100908.34;4994966;28;45445;-78
2022/04/19 08:07:37;;;;;;;;;6.67;6.33;;;;;29.58;21.23;100938.78;4995691;28;45366;-79
2022/04/19 08:10:03;;;;;;;;;5.67;5.67;;;;;29.48;21.68;100932.97;4977307;28;47981;-78
2022/04/19 08:12:29;;;;;;;;;7.67;6.00;;;;;29.42;21.08;100916.88;4995874;28;46004;-78
2022/04/19 08:14:55;;;;;;;;;6.00;5.00;;;;;29.60;21.30;100929.50;4977410;28;46275;-78
2022/04/19 08:17:21;;;;;;;;;6.33;4.00;;;;;29.82;21.01;100947.38;4994617;28;45554;-78
2022/04/19 08:19:47;;;;;;;;;5.00;5.00;;;;;29.79;20.53;100936.63;4994511;28;46339;-79
2022/04/19 08:22:12;;;;;;;;;7.67;3.00;;;;;29.84;20.57;100942.72;4977369;28;45417;-78
2022/04/19 08:24:38;;;;;;;;;5.67;5.00;;;;;30.07;20.15;100960.53;4998828;28;45397;-79
2022/04/19 08:27:04;;;;;;;;;5.00;5.00;;;;;29.87;20.63;100947.13;5007807;28;45445;-78
2022/04/19 08:29:30;;;;;;;;;4.00;4.00;;;;;29.51;20.46;100912.78;5005385;28;45674;-79
2022/04/19 08:31:55;;;;;;;;;2.33;2.33;;;;;29.65;20.64;100921.03;5001714;28;45442;-79
2022/04/19 08:34:21;;;;;;;;;5.00;4.33;;;;;29.74;20.39;100955.16;4978047;28;45361;-79
2022/04/19 08:36:47;;;;;;;;;5.00;4.67;;;;;29.55;20.45;100915.22;4999361;28;45681;-79
2022/04/19 08:39:12;;;;;;;;;4.00;3.67;;;;;29.53;20.35;100908.94;4995465;28;45377;-78
2022/04/19 08:41:40;;;;;;;;;5.67;3.00;;;;;29.72;20.71;100938.84;4995051;28;45360;-78
2022/04/19 08:44:06;;;;;;;;;5.33;3.00;;;;;29.55;20.15;100914.31;4995868;28;45421;-78
2022/04/19 08:46:32;;;;;;;;;4.00;4.00;;;;;29.58;20.41;100911.44;4989345;28;45511;-77
2022/04/19 08:49:03;;;;;;;;;6.00;5.00;;;;;29.89;20.34;100950.69;4977041;28;47382;-77
2022/04/19 08:51:32;;;;;;;;;5.00;4.67;;;;;29.99;20.28;100951.03;4996575;28;45392;-77
2022/04/19 08:59:30;;;;;;;;;6.67;5.00;;;;;30.49;19.94;100948.94;4990867;28;45522;-76
2022/04/19 09:01:56;;;;;;;;;8.00;6.00;;;;;30.44;19.73;100946.50;4997186;28;45368;-78
2022/04/19 09:04:22;;;;;;;;;6.00;4.33;;;;;30.54;20.17;100923.03;4997979;28;45527;-77
2022/04/19 09:06:52;;;;;;;;;6.00;5.33;;;;;30.53;19.44;100928.63;4999093;28;45519;-78
2022/04/19 09:09:22;;;;;;;;;4.00;4.00;;;;;30.49;19.34;100916.97;4984515;28;48360;-77
2022/04/19 09:11:48;;;;;;;;;6.00;4.33;;;;;30.68;19.61;100930.38;5005329;28;45515;-77
2022/04/19 09:14:14;;;;;;;;;8.00;6.33;;;;;30.75;19.85;100939.09;4998981;28;45700;-78
2022/04/19 09:16:40;;;;;;;;;5.33;5.00;;;;;30.89;19.18;100936.38;5001334;28;45713;-77
2022/04/19 09:19:08;;;;;;;;;6.00;6.00;;;;;30.91;18.50;100933.53;4999014;28;45506;-77
2022/04/19 09:21:38;;;;;;;;;4.00;3.00;;;;;30.86;18.96;100936.56;5002440;28;45546;-77
2022/04/19 09:24:20;;;;;;;;;8.33;6.00;;;;;31.01;18.99;100933.81;4997172;28;46411;-77
2022/04/19 09:26:49;;;;;;;;;5.00;4.33;;;;;31.00;18.94;100940.25;4989678;28;45589;-77
2022/04/19 09:29:21;;;;;;;;;5.00;5.00;;;;;30.88;19.00;100923.63;4991080;28;46282;-78
2022/04/19 09:31:50;;;;;;;;;6.00;6.00;;;;;30.97;18.54;100927.66;4975034;28;45531;-77
2022/04/19 09:34:30;;;;;;;;;5.00;4.00;;;;;31.00;18.57;100932.03;4999108;28;46422;-77
2022/04/19 09:37:06;;;;;;;;;5.00;4.00;;;;;30.92;18.47;100927.06;4992668;28;45315;-78
2022/04/19 09:39:34;;;;;;;;;4.67;4.00;;;;;31.08;18.92;100921.50;4998028;28;45935;-78
2022/04/19 09:42:03;;;;;;;;;6.00;5.00;;;;;30.88;18.59;100879.81;4994031;28;45996;-78
2022/04/19 09:44:29;;;;;;;;;5.67;4.67;;;;;30.89;18.22;100888.94;4996246;28;46426;-78
2022/04/19 09:47:04;;;;;;;;;6.67;4.00;;;;;30.66;18.90;100861.16;4993525;28;45257;-78
2022/04/19 09:49:52;;;;;;;;;8.00;7.00;;;;;31.20;19.12;100919.84;4992390;28;46198;-79
2022/04/19 09:52:20;;;;;;;;;7.00;6.00;;;;;31.41;18.51;100917.56;4996074;28;45386;-78
2022/04/19 09:54:59;;;;;;;;;6.00;6.00;;;;;31.27;18.43;100874.59;4998137;28;45469;-78
2022/04/19 09:57:24;;;;;;;;;8.33;8.33;;;;;30.94;19.03;100813.69;4993847;28;45445;-78
2022/04/19 09:59:51;;;;;;;;;6.00;6.00;;;;;31.04;18.77;100808.50;4975553;28;47965;-78
2022/04/19 10:10:37;;;;;;;;;9.00;8.00;;;;;31.67;19.00;100843.66;4951567;28;45687;-79
2022/04/19 10:13:03;;;;;;;;;12.00;12.00;;;;;31.87;18.10;100877.91;4951469;28;45483;-80
2022/04/19 10:15:31;;;;;;;;;8.33;8.33;;;;;31.89;18.90;100886.94;4948247;28;45494;-80
2022/04/19 10:17:57;;;;;;;;;12.00;10.67;;;;;31.61;18.71;100847.69;4951784;28;46140;-78
2022/04/19 10:20:31;;;;;;;;;10.00;9.00;;;;;31.91;18.72;100852.03;4931428;28;47162;-79
2022/04/19 10:23:01;;;;;;;;;9.00;8.00;;;;;31.96;18.92;100827.91;4951735;28;45464;-79
2022/04/19 10:25:43;;;;;;;;;10.00;9.00;;;;;32.26;18.82;100859.69;4961152;28;45580;-80
2022/04/19 10:28:10;;;;;;;;;11.67;9.33;;;;;32.15;18.26;100816.53;4952199;28;45733;-80
2022/04/19 10:30:38;;;;;;;;;12.00;12.00;;;;;32.23;18.54;100836.06;4947455;28;45635;-81
2022/04/19 10:33:40;;;;;;;;;9.67;9.67;;;;;32.45;18.53;100873.00;4951366;28;45590;-80
2022/04/19 10:36:23;;;;;;;;;13.00;13.00;;;;;32.37;18.36;100865.28;4947848;28;45536;-80
2022/04/19 10:39:16;;;;;;;;;13.00;12.00;;;;;32.34;18.72;100881.13;4951525;28;45482;-79
2022/04/19 10:42:01;;;;;;;;;15.67;15.00;;;;;32.49;18.52;100875.41;4962616;28;45603;-79
2022/04/19 10:44:28;;;;;;;;;15.67;13.67;;;;;32.44;18.89;100876.72;4993050;28;45417;-80
2022/04/19 10:47:05;;;;;;;;;16.00;14.00;;;;;32.36;18.93;100858.03;5000107;28;46378;-79
2022/04/19 10:49:30;;;;;;;;;14.33;14.33;;;;;32.44;18.95;100877.59;4996385;28;45538;-79
2022/04/19 10:51:59;;;;;;;;;19.00;19.00;;;;;32.45;19.08;100867.50;4995697;28;45351;-78
2022/04/19 10:55:02;;;;;;;;;19.00;17.00;;;;;32.58;18.45;100862.88;4978138;28;46296;-79
2022/04/19 11:00:45;;;;;;;;;14.67;11.33;;;;;32.67;18.91;100859.47;4992247;28;45547;-78
2022/04/19 11:03:17;;;;;;;;;19.33;17.33;;;;;32.66;18.74;100834.88;4993273;28;45539;-79
2022/04/19 11:05:57;;;;;;;;;15.67;14.67;;;;;32.46;18.67;100812.47;4977413;28;45445;-78
2022/04/19 11:08:25;;;;;;;;;15.33;14.00;;;;;32.76;18.40;100866.19;4997479;28;45444;-79
2022/04/19 11:11:03;;;;;;;;;16.67;14.67;;;;;32.78;18.68;100850.47;4977645;28;45359;-77
2022/04/19 11:13:35;;;;;;;;;17.67;16.00;;;;;32.86;18.84;100832.56;4978190;28;48119;-78
2022/04/19 11:16:03;;;;;;;;;17.33;17.33;;;;;32.95;18.36;100841.00;4994365;28;45849;-78
2022/04/19 11:18:55;;;;;;;;;15.00;12.33;;;;;33.02;18.19;100833.16;4995821;28;45491;-79
2022/04/19 11:22:05;;;;;;;;;17.00;17.00;;;;;33.15;18.30;100842.25;4992864;28;45434;-79
2022/04/19 11:25:03;;;;;;;;;16.00;16.00;;;;;33.16;18.49;100838.50;4974064;28;47324;-78
2022/04/19 11:27:54;;;;;;;;;14.00;13.33;;;;;33.16;18.08;100830.28;5008776;28;45876;-78
2022/04/19 11:30:24;;;;;;;;;15.00;13.67;;;;;33.17;17.95;100809.13;5014913;28;45414;-79
2022/04/19 11:32:52;;;;;;;;;14.33;13.00;;;;;33.25;18.27;100808.56;5014984;28;45616;-78
2022/04/19 11:35:18;;;;;;;;;14.67;13.33;;;;;33.40;17.98;100821.16;5015856;28;45550;-78
2022/04/19 11:37:45;;;;;;;;;16.33;16.33;;;;;33.22;18.08;100806.94;5017052;28;45455;-79
2022/04/19 11:48:38;;;;;;;;;11.33;11.33;;;;;33.64;18.27;100803.75;5012643;28;45475;-80
2022/04/19 11:51:11;;;;;;;;;12.00;11.67;;;;;33.64;18.01;100781.75;5020940;28;45450;-80
2022/04/19 11:53:37;;;;;;;;;15.33;14.00;;;;;33.44;17.49;100775.94;5015922;28;46510;-85
2022/04/19 11:56:03;;;;;;;;;15.67;14.00;;;;;33.71;18.46;100812.41;5017408;28;47335;-81
2022/04/19 11:58:30;;;;;;;;;17.00;17.00;;;;;33.78;17.73;100821.97;5015244;28;45940;-79
2022/04/19 12:01:06;;;;;;;;;20.67;17.67;;;;;33.66;17.79;100823.78;5014136;28;45921;-72
2022/04/19 12:03:37;;;;;;;;;16.33;16.33;;;;;33.82;17.69;100813.34;5014722;28;45328;-71
2022/04/19 12:06:14;;;;;;;;;14.67;14.67;;;;;34.13;17.70;100821.94;5013708;28;46258;-71
2022/04/19 12:08:50;;;;;;;;;15.33;15.00;;;;;34.33;17.18;100823.16;5013155;28;45496;-72
2022/04/19 12:11:18;;;;;;;;;16.00;16.00;;;;;34.11;17.76;100829.47;5009786;28;45551;-72